Terminal Aerodrome Forecast
Issued by NWS

Home | Current Version | Previous Version | Text Only | Print | Product List | Glossary On
Versions: 1 2 3 4 5 6 7 8 9 10 11 12 13 14 15 16 17
786
FTUS46 KHNX 170529
TAFVIS
TAF
KVIS 170529Z 1706/1806 04003KT 4SM BR SKC
     FM170800 13002KT 2SM BR SKC
     FM171000 13002KT 1/2SM FG SKC
     FM171800 12003KT 2SM BR BKN004
     FM172000 12003KT 4SM HZ FEW250
     FM180500 14002KT 2SM BR SCT250=

USA.gov is the U.S. government's official web portal to all federal, state and local government web resources and services.